Hauptseite
METAR-TAF:

METAR-TAF

Flughäfen :

Flughafen Ouagadougou

Ouagadougou, Burkina Faso

Breite: 12-21N, Länge: 001-31W, Höhe: 316 m

Beobachtung

Neuester Wetterbericht von vor 22 Minuten, um 20:00 UTC
Windstille
Temperatur 26°C
Luftfeuchtigkeit 48%
Luftdruck 1012 hPa
Sichtweite: 6000 m

METAR: DFFD 072000Z 00000KT 6000 NSC 26/14 Q1012 NOSIG

Zeit: 20:22 (20:22 UTC)

Prognose

Neuester Wetterbericht von vor 3 Stunden und 12 Minuten, um 17:10 UTC
Gültige Prognose vom 07 um 18 UTC bis 08 um 24 UTC
Wind 10 kt aus Ost
Sichtweite: 8000 m
Zeitweise
vom 07 um 18 UTC bis 07 um 21 UTC
Sichtweite: 4000 m
trockener Dunst
Zeitweise
vom 08 um 06 UTC bis 08 um 10 UTC
Sichtweite: 3500 m
trockener Dunst

TAF: DFFD 071710Z 0718/0824 08010KT 8000 NSC TEMPO 0718/0721 4000 HZ TEMPO 0806/0810 3500 HZ

Wetterbeobachtungen und Prognosen von mehr als 4000 Flughäfen (METAR und TAF Bericht).

Die verfügbaren Stationen werden durch gelbe und rote Markierungen auf der Karte dargestellt.

Führen Sie die Maus auf sie, um den Namen der Station zu sehen.

Darauf klicken, um die Beobachtung von Wetterbeobachtungen und Prognosen zu sehen.

Um die Karte zu ändern : klicken Sie auf den grünen Tasten mit einem schwarzen Kreuz Zum Vergrößern, auf den grünen Button mit einem Gedankenstrich zu verkleinern, oder auf die grünen Pfeile für benachbarte Karten.


METAR-TAF: